Latest Weather Observations for Omeo

IDV60801

Issued at 9:35 pm EST Tuesday 2 September 2014 (issued every 30 minutes, with the page automatically refreshed every 10 minutes)

About weather observations | Map of weather stations | Latest weather observations for VIC | Other Formats
Station Details ID: 083090 Name: OMEO Lat: -37.10 Lon: 147.60 Height: 689.8 m
Data from the previous 72 hours. | See also: Recent months at Omeo
Date/Time
EST
Temp
°C
App
Temp
°C
Dew
Point
Rel
Hum
%
Delta-T
°C
Wind Press
QNH
hPa
Press
MSL
hPa
Rain
since 9 am
mm
Dir
 
Spd
km/h
Gust
km/h
Spd
kts
Gust
kts
02/09:30pm 3.7 -0.6 1.3 84 1.0 SSW 13 19 7 10 1018.9 1019.0 5.4
02/09:00pm 3.1 -0.9 0.7 84 1.0 SSW 11 15 6 8 1018.8 1018.9 5.4
02/08:30pm 3.1 -0.8 1.2 87 0.8 SSW 11 15 6 8 1018.8 1018.9 5.4
02/08:00pm 3.1 -0.8 1.2 87 0.8 SSW 11 13 6 7 1018.5 1018.6 5.4
02/07:30pm 3.5 -0.7 1.5 87 0.8 SSW 13 20 7 11 1018.5 1018.6 5.4
02/07:00pm 4.0 -0.5 2.0 87 0.8 S 15 22 8 12 1018.1 1018.1 5.4
02/06:30pm 4.0 -0.1 2.0 87 0.8 S 13 20 7 11 1017.6 1017.7 5.4
02/06:00pm 4.2 0.1 2.4 88 0.8 SSW 13 19 7 10 1017.3 1017.4 5.4
02/05:30pm 4.5 0.9 2.8 89 0.7 S 11 17 6 9 1017.0 1017.0 5.4
02/05:00pm 4.7 0.0 3.2 90 0.6 SSW 17 24 9 13 1016.4 1016.5 5.4
02/04:30pm 4.8 0.5 3.5 91 0.6 S 15 28 8 15 1016.1 1016.2 5.0
02/04:00pm 4.1 -0.7 2.8 91 0.6 S 17 28 9 15 1015.9 1015.9 4.8
02/03:30pm 4.3 -0.4 3.1 92 0.5 S 17 32 9 17 1015.6 1015.6 4.6
02/03:00pm 3.9 -0.5 2.9 93 0.4 S 15 24 8 13 1015.3 1015.3 4.2
02/02:30pm 3.9 -0.1 2.9 93 0.4 S 13 26 7 14 1014.8 1014.9 3.4
02/02:00pm 3.3 -1.2 2.1 92 0.5 S 15 28 8 15 1014.8 1014.9 3.0
02/01:30pm 3.3 -1.2 2.0 91 0.5 S 15 24 8 13 1014.7 1014.8 2.4
02/01:00pm 3.9 -1.0 2.3 89 0.7 S 17 28 9 15 1014.8 1014.9 1.6
02/12:30pm 4.7 0.3 2.9 88 0.8 S 15 22 8 12 1014.6 1014.6 1.4
02/12:00pm 7.2 2.1 2.9 74 1.9 SSW 19 35 10 19 1013.9 1013.9 0.2
02/11:30am 7.6 2.4 2.7 71 2.1 S 19 33 10 18 1013.9 1013.9 0.2
02/11:00am 7.2 2.0 3.4 77 1.7 S 20 35 11 19 1014.0 1014.0 0.2
02/10:30am 7.4 2.6 4.7 83 1.2 S 19 30 10 16 1014.1 1014.1 0.2
02/10:00am 8.1 3.2 4.1 76 1.8 SSW 19 26 10 14 1013.8 1013.8 0.2
02/09:30am 6.4 1.8 3.9 84 1.1 SSW 17 26 9 14 1013.7 1013.7 0.2
02/09:00am 6.6 2.8 3.9 83 1.2 SSW 13 24 7 13 1013.7 1013.7 6.8
02/08:30am 6.2 1.1 3.0 80 1.4 S 19 35 10 19 1013.3 1013.3 6.6
02/08:00am 5.5 2.4 3.8 89 0.7 S 9 17 5 9 1013.1 1013.1 6.6
02/07:30am 5.5 2.4 3.8 89 0.7 S 9 15 5 8 1012.8 1012.8 6.6
02/07:00am 5.4 2.3 3.6 88 0.8 S 9 15 5 8 1012.5 1012.5 6.6
02/06:30am 5.2 1.7 3.5 89 0.7 S 11 22 6 12 1012.1 1012.0 6.6
02/06:00am 5.1 2.1 3.9 92 0.5 S 9 17 5 9 1011.7 1011.7 6.2
02/05:30am 5.0 2.5 4.0 93 0.4 SW 6 9 3 5 1011.4 1011.4 6.2
02/05:00am 4.9 2.2 3.9 93 0.4 SSE 7 11 4 6 1011.1 1011.1 6.0
02/04:30am 5.3 2.3 4.1 92 0.5 S 9 13 5 7 1010.8 1010.7 5.0
02/04:00am 5.2 2.6 4.0 92 0.5 S 7 13 4 7 1010.8 1010.7 5.0
02/03:30am 5.3 2.3 4.3 93 0.4 S 9 22 5 12 1010.9 1010.8 5.0
02/03:00am 5.2 2.8 4.2 93 0.4 S 6 7 3 4 1010.6 1010.5 4.2
02/02:30am 5.3 2.3 4.0 91 0.6 SSW 9 20 5 11 1010.5 1010.4 3.6
02/02:00am 5.5 2.5 4.0 90 0.7 S 9 13 5 7 1010.5 1010.4 2.8
02/01:30am 5.6 3.0 4.1 90 0.7 SSE 7 9 4 5 1010.5 1010.4 2.6
02/01:00am 5.8 2.8 4.3 90 0.7 SSE 9 15 5 8 1010.5 1010.4 2.6
02/12:30am 6.1 2.4 4.4 89 0.8 S 13 20 7 11 1010.4 1010.3 2.2
02/12:00am 6.7 4.3 5.3 91 0.6 S 7 13 4 7 1010.2 1010.2 2.0
 
Date/Time
EST
Temp
°C
App
Temp
°C
Dew
Point
Rel
Hum
%
Delta-T
°C
Wind Press
QNH
hPa
Press
MSL
hPa
Rain
since 9 am
mm
Dir
 
Spd
km/h
Gust
km/h
Spd
kts
Gust
kts
01/11:30pm 6.7 5.7 5.5 92 0.6 CALM 0 6 0 3 1010.0 1010.0 2.0
01/11:00pm 7.1 5.8 5.9 92 0.6 E 2 7 1 4 1009.9 1009.9 2.0
01/10:30pm 7.5 6.7 6.3 92 0.6 CALM 0 0 0 0 1009.9 1009.9 1.8
01/10:00pm 7.5 5.5 6.1 91 0.7 SW 6 9 3 5 1009.7 1009.6 1.8
01/09:30pm 8.1 6.1 6.4 89 0.8 N 6 11 3 6 1009.5 1009.4 1.8
01/09:00pm 8.1 5.2 6.6 90 0.7 NW 11 15 6 8 1009.6 1009.5 1.4
01/08:30pm 8.0 5.4 6.1 88 0.9 NW 9 13 5 7 1009.6 1009.5 1.0
01/08:00pm 8.3 6.0 5.9 85 1.1 NW 7 9 4 5 1009.6 1009.5 0.6
01/07:30pm 8.6 6.3 5.5 81 1.5 NW 7 9 4 5 1009.6 1009.5 0.4
01/07:00pm 9.3 5.3 4.7 73 2.1 NW 15 22 8 12 1009.5 1009.4 0.2
01/06:30pm 10.5 5.5 3.8 63 3.1 NW 19 28 10 15 1009.3 1009.2 0.0
01/06:00pm 11.7 6.9 2.7 54 4.1 WNW 17 22 9 12 1009.1 1009.0 0.0
01/05:30pm 12.9 8.5 2.7 50 4.7 WNW 15 22 8 12 1008.2 1008.1 0.0
01/05:00pm 13.3 8.9 2.8 49 4.8 WNW 15 22 8 12 1008.0 1007.9 0.0
01/04:30pm 13.9 8.2 2.8 47 5.1 NNW 22 39 12 21 1007.9 1007.8 0.0
01/04:00pm 14.2 7.7 2.5 45 5.4 NW 26 41 14 22 1007.6 1007.5 0.0
01/03:30pm 14.9 6.9 1.8 41 6.0 NW 33 54 18 29 1007.7 1007.6 0.0
01/03:28pm 14.8 7.0 1.7 41 6.0 NW 32 54 17 29 1007.7 1007.6 0.0
01/03:00pm 15.7 10.8 5.0 49 5.3 NNW 20 32 11 17 1007.8 1007.7 0.0
01/02:30pm 14.9 10.1 4.6 50 5.0 NNW 19 28 10 15 1007.7 1007.6 0.0
01/02:00pm 15.2 9.2 3.4 45 5.6 N 24 39 13 21 1007.7 1007.6 0.0
01/01:30pm 15.9 9.8 4.6 47 5.5 NNW 26 39 14 21 1007.9 1007.8 0.0
01/01:00pm 15.7 8.3 3.8 45 5.7 NNW 32 44 17 24 1008.2 1008.1 0.0
01/12:53pm 16.0 9.1 4.4 46 5.6 NNW 30 48 16 26 1008.2 1008.1 0.0
01/12:30pm 16.0 8.5 4.7 47 5.5 N 33 50 18 27 1008.5 1008.5 0.0
01/12:04pm 15.4 6.1 3.2 44 5.8 N 41 65 22 35 1009.2 1009.1 0.0
01/12:00pm 16.1 7.4 3.9 44 5.9 N 39 56 21 30 1009.3 1009.2 0.0
01/11:47am 16.1 8.7 4.2 45 5.8 N 32 59 17 32 1009.4 1009.3 0.0
01/11:30am 15.8 8.6 4.8 48 5.4 N 32 48 17 26 1009.9 1009.9 0.0
01/11:01am 15.5 9.1 5.1 50 5.1 N 28 48 15 26 1010.7 1010.6 0.0
01/11:00am 15.7 9.5 6.2 53 4.8 N 28 43 15 23 1010.8 1010.7 0.0
01/10:30am 14.0 7.5 4.6 53 4.5 N 28 50 15 27 1011.5 1011.5 0.0
01/10:00am 14.3 8.1 6.2 58 4.0 N 28 41 15 22 1011.9 1011.8 0.0
01/09:30am 12.6 6.9 5.1 60 3.6 N 24 35 13 19 1013.0 1013.7 0.0
01/09:00am 11.7 5.3 5.3 65 3.1 N 28 39 15 21 1013.3 1014.0 0.0
01/08:30am 10.5 5.6 4.9 68 2.6 NNW 20 32 11 17 1013.6 1014.3 0.0
01/08:00am 9.8 4.8 4.6 70 2.4 N 20 26 11 14 1013.9 1014.6 0.0
01/07:30am 9.2 5.1 4.4 72 2.2 N 15 24 8 13 1014.2 1014.9 0.0
01/07:00am 9.1 5.0 4.1 71 2.3 NNW 15 24 8 13 1014.2 1014.9 0.0
01/06:30am 8.6 4.4 4.0 73 2.1 N 15 24 8 13 1013.9 1014.6 0.0
01/06:00am 8.4 5.0 4.0 74 2.0 N 11 17 6 9 1014.0 1014.7 0.0
01/05:30am 8.3 4.6 4.3 76 1.8 N 13 19 7 10 1013.9 1014.6 0.0
01/05:00am 7.4 3.7 4.4 81 1.4 NNW 13 17 7 9 1013.8 1014.5 0.0
01/04:30am 6.7 3.0 4.2 84 1.1 N 13 20 7 11 1013.8 1014.5 0.0
01/04:00am 6.5 2.0 4.2 85 1.0 N 17 24 9 13 1014.1 1014.8 0.0
01/03:30am 7.0 2.6 4.5 84 1.1 N 17 22 9 12 1014.1 1014.8 0.0
01/03:00am 7.1 2.3 4.9 86 1.0 N 19 26 10 14 1014.1 1014.8 0.0
01/02:30am 5.8 1.4 4.6 92 0.5 N 17 22 9 12 1014.4 1015.1 0.0
01/02:00am 6.0 2.3 4.6 91 0.6 NNW 13 19 7 10 1014.7 1015.5 0.0
01/01:30am 6.7 2.3 5.0 89 0.8 N 17 20 9 11 1015.2 1015.9 0.0
01/01:00am 6.0 1.6 4.5 90 0.7 N 17 22 9 12 1015.4 1016.1 0.0
01/12:30am 6.0 1.5 4.3 89 0.8 N 17 22 9 12 1015.6 1016.3 0.0
01/12:00am 6.5 2.1 4.8 89 0.8 N 17 20 9 11 1016.0 1016.8 0.0
 
Date/Time
EST
Temp
°C
App
Temp
°C
Dew
Point
Rel
Hum
%
Delta-T
°C
Wind Press
QNH
hPa
Press
MSL
hPa
Rain
since 9 am
mm
Dir
 
Spd
km/h
Gust
km/h
Spd
kts
Gust
kts
31/11:30pm 6.3 3.4 4.5 88 0.8 N 9 13 5 7 1016.6 1017.3 0.0
31/11:00pm 6.8 3.9 4.6 86 1.0 NNE 9 13 5 7 1016.7 1017.4 0.0
31/10:30pm 7.2 4.4 5.2 87 0.9 N 9 15 5 8 1017.0 1017.7 0.0
31/10:00pm 7.0 5.4 4.7 85 1.0 N 2 9 1 5 1017.2 1018.0 0.0
31/09:30pm 7.8 5.6 5.1 83 1.2 NW 6 9 3 5 1017.5 1018.3 0.0
31/09:00pm 7.7 5.8 4.8 82 1.3 N 4 11 2 6 1017.5 1018.3 0.0
31/08:30pm 8.2 5.8 5.1 81 1.4 NNW 7 11 4 6 1017.5 1018.3 0.0
31/08:00pm 8.7 6.5 5.3 79 1.6 NNE 6 11 3 6 1017.4 1018.2 0.0
31/07:30pm 9.6 7.3 5.6 76 1.9 N 7 11 4 6 1017.4 1018.2 0.0
31/07:00pm 10.3 8.3 6.1 75 2.0 NW 6 13 3 7 1017.3 1018.1 0.0
31/06:30pm 11.5 8.5 6.2 70 2.6 N 11 17 6 9 1017.1 1017.9 0.0
31/06:00pm 12.1 8.4 6.4 68 2.8 N 15 20 8 11 1016.8 1017.5 0.0
31/05:30pm 13.0 9.7 6.6 65 3.2 N 13 17 7 9 1016.6 1017.3 0.0
31/05:00pm 14.9 10.9 6.5 57 4.2 N 17 26 9 14 1016.3 1017.1 0.0
31/04:30pm 15.6 11.0 6.3 54 4.7 N 20 28 11 15 1016.1 1016.9 0.0
31/04:00pm 16.1 12.2 7.1 55 4.6 NNE 17 22 9 12 1016.1 1016.9 0.0
31/03:30pm 16.4 12.9 7.3 55 4.7 N 15 22 8 12 1016.2 1017.0 0.0
31/03:00pm 16.4 12.4 6.8 53 4.9 N 17 24 9 13 1016.3 1017.1 0.0
31/02:30pm 16.5 12.5 6.6 52 5.0 N 17 26 9 14 1016.7 1017.4 0.0
31/02:00pm 16.2 12.1 6.3 52 5.0 N 17 26 9 14 1017.1 1017.9 0.0
31/01:30pm 16.0 12.3 6.4 53 4.9 N 15 26 8 14 1017.6 1018.4 0.0
31/01:00pm 16.0 12.1 7.2 56 4.5 N 17 24 9 13 1017.9 1018.7 0.0
31/12:30pm 15.3 11.5 7.6 60 4.0 N 17 22 9 12 1018.4 1019.2 0.0
31/12:00pm 14.3 10.5 7.4 63 3.5 N 17 20 9 11 1018.8 1019.6 0.0
31/11:30am 12.8 8.4 6.6 66 3.1 N 19 24 10 13 1019.5 1020.4 0.0
31/11:00am 11.1 6.3 5.4 68 2.7 N 20 26 11 14 1020.1 1020.9 0.0
31/10:30am 10.1 5.2 5.1 71 2.4 N 20 28 11 15 1020.5 1021.3 0.0
31/10:00am 8.6 4.2 4.8 77 1.8 N 17 24 9 13 1020.9 1021.8 0.0
31/09:30am 6.6 2.0 3.9 83 1.2 N 17 24 9 13 1021.3 1022.1 0.0
31/09:00am 4.4 -0.4 2.6 88 0.8 N 17 22 9 12 1021.5 1022.3 0.0
31/08:30am 2.7 -1.5 1.7 93 0.4 N 13 17 7 9 1021.7 1022.5 0.0
31/08:00am 0.8 -2.9 0.2 96 0.2 N 9 13 5 7 1021.9 1022.7 0.0
31/07:30am -0.4 -4.2 -0.8 97 0.1 N 9 15 5 8 1021.8 1022.6 0.0
31/07:00am -1.1 -4.4 -1.5 97 0.1 NNW 6 7 3 4 1021.6 1022.4 0.0
31/06:30am -1.1 -4.6 -1.7 96 0.2 NNW 7 9 4 5 1021.5 1022.3 0.0
31/06:00am -1.1 -4.6 -1.7 96 0.2 NW 7 11 4 6 1021.2 1022.0 0.0
31/05:30am -1.0 -4.5 -1.6 96 0.2 NW 7 9 4 5 1021.0 1021.9 0.0
31/05:00am -0.7 -2.9 -1.4 95 0.2 CALM 0 6 0 3 1021.2 1022.0 0.0
31/04:30am -0.1 -3.3 -0.7 96 0.2 NW 6 7 3 4 1021.0 1021.9 0.0
31/04:00am -0.1 -3.5 -0.7 96 0.2 NNW 7 9 4 5 1020.9 1021.8 0.0
31/03:30am -0.1 -3.9 -0.8 95 0.3 NW 9 11 5 6 1021.0 1021.9 0.0
31/03:00am 0.2 -3.0 -0.5 95 0.3 WNW 6 7 3 4 1021.4 1022.2 0.0
31/02:30am 0.5 -2.8 -0.2 95 0.3 NNW 7 9 4 5 1021.6 1022.4 0.0
31/02:00am 0.6 -3.1 -0.1 95 0.3 W 9 9 5 5 1022.0 1022.9 0.0
31/01:30am 0.4 -1.6 -0.3 95 0.3 CALM 0 0 0 0 1022.3 1023.2 0.0
31/01:00am 0.5 -1.5 -0.4 94 0.3 CALM 0 0 0 0 1022.5 1023.4 0.0
31/12:30am 1.2 -0.7 0.3 94 0.3 CALM 0 0 0 0 1022.9 1023.7 0.0
31/12:00am 1.3 -0.6 0.3 93 0.4 CALM 0 0 0 0 1023.0 1023.8 0.0
 
Date/Time
EST
Temp
°C
App
Temp
°C
Dew
Point
Rel
Hum
%
Delta-T
°C
Wind Press
QNH
hPa
Press
MSL
hPa
Rain
since 9 am
mm
Dir
 
Spd
km/h
Gust
km/h
Spd
kts
Gust
kts
30/11:30pm 2.3 0.5 1.3 93 0.4 CALM 0 0 0 0 1023.0 1023.8 0.0
30/11:00pm 2.6 0.8 1.3 91 0.5 CALM 0 0 0 0 1023.2 1024.0 0.0
30/10:30pm 2.9 1.1 1.4 90 0.6 CALM 0 0 0 0 1023.2 1024.0 0.0
30/10:00pm 3.2 1.5 1.6 89 0.6 CALM 0 0 0 0 1023.3 1024.2 0.0

Other Formats:

Comma delimited format used in spreadsheet applications
http://www.bom.gov.au/fwo/IDV60801/IDV60801.94908.axf

JavaScript Object Notation format (JSON) in row-major order
http://www.bom.gov.au/fwo/IDV60801/IDV60801.94908.json